createdAt,value
2017-09-14T00:01:02.801Z,18.50
2017-09-14T00:03:31.021Z,18.40
2017-09-14T00:05:58.464Z,18.40
2017-09-14T00:08:25.903Z,18.40
2017-09-14T00:10:53.345Z,18.50
2017-09-14T00:13:20.786Z,18.50
2017-09-14T00:15:48.213Z,18.50
2017-09-14T00:18:15.657Z,18.50
2017-09-14T00:20:43.092Z,18.50
2017-09-14T00:23:10.536Z,18.50
2017-09-14T00:25:37.984Z,18.50
2017-09-14T00:28:05.423Z,18.50
2017-09-14T00:30:32.852Z,18.50
2017-09-14T00:33:00.367Z,18.50
2017-09-14T00:35:29.309Z,18.40
2017-09-14T00:37:56.752Z,18.40
2017-09-14T00:40:24.183Z,18.40
2017-09-14T00:42:51.665Z,18.40
2017-09-14T00:45:19.104Z,18.30
2017-09-14T00:47:46.565Z,18.30
2017-09-14T00:50:14.803Z,18.30
2017-09-14T00:52:42.261Z,18.30
2017-09-14T00:55:10.473Z,18.30
2017-09-14T00:57:37.943Z,18.30
2017-09-14T01:00:05.385Z,18.30
2017-09-14T01:02:32.917Z,18.30
2017-09-14T01:05:00.336Z,18.30
2017-09-14T01:07:27.772Z,18.30
2017-09-14T01:09:55.216Z,18.30
2017-09-14T01:12:22.686Z,18.20
2017-09-14T01:15:07.777Z,18.20
2017-09-14T01:17:35.312Z,18.20
2017-09-14T01:20:02.862Z,18.10
2017-09-14T01:22:30.300Z,18.20
2017-09-14T01:24:57.770Z,18.20
2017-09-14T01:27:25.228Z,18.10
2017-09-14T01:29:52.685Z,18.10
2017-09-14T01:32:21.314Z,18.10
2017-09-14T01:34:48.749Z,18.10
2017-09-14T01:37:16.198Z,18.10
2017-09-14T01:39:43.671Z,18.10
2017-09-14T01:42:11.109Z,18.00
2017-09-14T01:44:38.656Z,18.00
2017-09-14T01:47:06.209Z,18.10
2017-09-14T01:49:33.657Z,18.00
2017-09-14T01:52:01.857Z,18.00
2017-09-14T01:54:29.302Z,18.00
2017-09-14T01:56:56.741Z,18.00
2017-09-14T01:59:24.188Z,17.90
2017-09-14T02:01:51.672Z,17.90
2017-09-14T02:04:19.940Z,17.80
2017-09-14T02:06:47.481Z,17.80
2017-09-14T02:09:15.028Z,17.80
2017-09-14T02:11:42.484Z,17.80
2017-09-14T02:14:10.728Z,17.80
2017-09-14T02:16:38.176Z,17.70
2017-09-14T02:19:05.620Z,17.70
2017-09-14T02:21:33.068Z,17.70
2017-09-14T02:24:01.272Z,17.60
2017-09-14T02:26:28.756Z,17.60
2017-09-14T02:28:56.200Z,17.60
2017-09-14T02:31:24.417Z,17.60
2017-09-14T02:33:51.865Z,17.50
2017-09-14T02:36:19.343Z,17.50
2017-09-14T02:38:47.601Z,17.50
2017-09-14T02:41:16.586Z,17.50
2017-09-14T02:43:44.848Z,17.50
2017-09-14T02:46:12.306Z,17.50
2017-09-14T02:48:40.505Z,17.60
2017-09-14T02:51:07.988Z,17.50
2017-09-14T02:53:35.533Z,17.50
2017-09-14T02:56:02.988Z,17.50
2017-09-14T02:58:31.189Z,17.50
2017-09-14T03:00:58.639Z,17.50
2017-09-14T03:03:26.100Z,17.50
2017-09-14T03:05:53.545Z,17.50
2017-09-14T03:08:20.988Z,17.50
2017-09-14T03:10:48.441Z,17.50
2017-09-14T03:13:15.992Z,17.50
2017-09-14T03:15:44.210Z,17.50
2017-09-14T03:18:11.702Z,17.50
2017-09-14T03:20:39.135Z,17.50
2017-09-14T03:23:06.576Z,17.50
2017-09-14T03:25:34.021Z,17.60
2017-09-14T03:28:01.579Z,17.60
2017-09-14T03:30:29.829Z,17.60
2017-09-14T03:32:57.376Z,17.50
2017-09-14T03:35:24.822Z,17.50
2017-09-14T03:37:52.260Z,17.50
2017-09-14T03:40:19.696Z,17.50
2017-09-14T03:42:47.140Z,17.50
2017-09-14T03:45:14.608Z,17.50
2017-09-14T03:47:42.822Z,17.50
2017-09-14T03:50:10.303Z,17.50
2017-09-14T03:52:37.776Z,17.50
2017-09-14T03:55:05.244Z,17.50
2017-09-14T03:57:32.684Z,17.60
2017-09-14T04:00:00.124Z,17.60
2017-09-14T04:02:27.601Z,17.70
2017-09-14T04:04:55.041Z,17.70
2017-09-14T04:07:22.484Z,17.70
2017-09-14T04:09:49.933Z,17.80
2017-09-14T04:12:17.476Z,17.80
2017-09-14T04:14:44.921Z,17.80
2017-09-14T04:17:12.480Z,17.70
2017-09-14T04:19:40.692Z,17.80
2017-09-14T04:22:08.139Z,17.80
2017-09-14T04:24:35.597Z,17.70
2017-09-14T04:27:03.036Z,17.70
2017-09-14T04:29:31.280Z,17.70
2017-09-14T04:31:58.836Z,17.70
2017-09-14T04:34:27.082Z,17.70
2017-09-14T04:36:54.550Z,17.70
2017-09-14T04:39:21.984Z,17.70
2017-09-14T04:41:49.446Z,17.70
2017-09-14T04:44:16.888Z,17.60
2017-09-14T04:46:45.084Z,17.60
2017-09-14T04:49:12.568Z,17.60
2017-09-14T04:51:40.112Z,17.60
2017-09-14T04:54:07.650Z,17.60
2017-09-14T04:56:35.095Z,17.60
2017-09-14T04:59:02.550Z,17.60
2017-09-14T05:01:30.088Z,17.50
2017-09-14T05:03:57.568Z,17.60
2017-09-14T05:06:25.072Z,17.60
2017-09-14T05:08:52.517Z,17.60
2017-09-14T05:11:19.961Z,17.60
2017-09-14T05:13:47.445Z,17.60
2017-09-14T05:16:14.889Z,17.60
2017-09-14T05:18:42.344Z,17.60
2017-09-14T05:21:10.010Z,17.60
2017-09-14T05:23:37.461Z,17.70
2017-09-14T05:26:04.904Z,17.70
2017-09-14T05:28:32.357Z,17.80
2017-09-14T05:30:59.821Z,17.90
2017-09-14T05:33:27.343Z,17.90
2017-09-14T05:35:54.765Z,18.00
2017-09-14T05:38:22.269Z,18.10
2017-09-14T05:40:49.692Z,18.10
2017-09-14T05:43:17.164Z,18.10
2017-09-14T05:45:44.688Z,18.10
2017-09-14T05:48:12.376Z,18.20
2017-09-14T05:50:40.576Z,18.40
2017-09-14T05:53:08.005Z,18.40
2017-09-14T05:55:35.444Z,18.40
2017-09-14T05:58:02.928Z,18.50
2017-09-14T06:00:30.357Z,18.60
2017-09-14T06:02:57.796Z,18.70
2017-09-14T06:05:25.232Z,18.70
2017-09-14T06:07:52.708Z,18.80
2017-09-14T06:10:20.925Z,18.90
2017-09-14T06:12:48.379Z,18.90
2017-09-14T06:15:15.937Z,18.90
2017-09-14T06:17:43.488Z,18.70
2017-09-14T06:20:11.714Z,17.90
2017-09-14T06:22:40.389Z,17.90
2017-09-14T06:25:07.907Z,17.80
2017-09-14T06:27:35.410Z,17.70
2017-09-14T06:30:02.957Z,17.50
2017-09-14T06:32:30.569Z,17.40
2017-09-14T06:34:58.045Z,17.60
2017-09-14T06:37:25.504Z,17.50
2017-09-14T06:39:53.714Z,17.50
2017-09-14T06:42:21.159Z,17.50
2017-09-14T06:44:48.628Z,17.50
2017-09-14T06:47:16.128Z,17.60
2017-09-14T06:49:43.575Z,17.70
2017-09-14T06:52:11.056Z,17.80
2017-09-14T06:54:38.500Z,17.70
2017-09-14T06:57:05.940Z,17.80
2017-09-14T06:59:33.384Z,17.50
2017-09-14T07:02:02.364Z,17.70
2017-09-14T07:04:29.943Z,17.70
2017-09-14T07:06:58.856Z,18.00
2017-09-14T07:09:26.332Z,18.00
2017-09-14T07:11:53.782Z,18.00
2017-09-14T07:14:21.228Z,18.20
2017-09-14T07:16:48.666Z,18.40
2017-09-14T07:19:16.121Z,18.20
2017-09-14T07:21:44.328Z,17.60
2017-09-14T07:24:11.776Z,17.60
2017-09-14T07:26:39.215Z,17.70
2017-09-14T07:29:06.680Z,18.00
2017-09-14T07:31:34.112Z,17.80
2017-09-14T07:34:01.672Z,17.50
2017-09-14T07:36:29.112Z,17.40
2017-09-14T07:38:57.342Z,17.20
2017-09-14T07:41:24.813Z,17.20
2017-09-14T07:43:52.356Z,16.30
2017-09-14T07:46:19.800Z,16.30
2017-09-14T07:48:47.269Z,16.20
2017-09-14T07:51:14.689Z,15.90
2017-09-14T07:53:42.129Z,16.20
2017-09-14T07:56:10.397Z,15.80
2017-09-14T07:58:37.825Z,15.80
2017-09-14T08:01:05.280Z,15.40
2017-09-14T08:03:32.709Z,15.40
2017-09-14T08:06:00.156Z,15.20
2017-09-14T08:08:27.597Z,14.90
2017-09-14T08:10:55.044Z,14.80
2017-09-14T08:13:22.697Z,14.70
2017-09-14T08:15:50.241Z,14.70
2017-09-14T08:18:18.445Z,15.00
2017-09-14T08:20:45.887Z,15.00
2017-09-14T08:23:13.316Z,15.00
2017-09-14T08:25:41.529Z,14.90
2017-09-14T08:28:09.732Z,15.00
2017-09-14T08:30:37.212Z,15.00
2017-09-14T08:33:04.656Z,15.00
2017-09-14T08:35:32.097Z,14.90
2017-09-14T08:37:59.546Z,14.90
2017-09-14T08:40:26.985Z,15.10
2017-09-14T08:42:54.533Z,15.20
2017-09-14T08:45:21.992Z,15.20
2017-09-14T08:47:50.188Z,15.00
2017-09-14T08:50:17.672Z,15.00
2017-09-14T08:52:45.212Z,14.90
2017-09-14T08:55:12.660Z,14.90
2017-09-14T08:57:40.101Z,14.90
2017-09-14T09:00:07.546Z,14.90
2017-09-14T09:02:35.091Z,14.90
2017-09-14T09:05:02.533Z,14.70
2017-09-14T09:07:29.972Z,14.50
2017-09-14T09:09:57.412Z,14.30
2017-09-14T09:12:24.857Z,14.40
2017-09-14T09:14:52.409Z,14.40
2017-09-14T09:17:19.924Z,14.30
2017-09-14T09:19:47.346Z,14.20
2017-09-14T09:22:14.790Z,14.10
2017-09-14T09:24:42.232Z,14.00
2017-09-14T09:27:09.792Z,13.80
2017-09-14T09:29:37.241Z,13.60
2017-09-14T09:32:04.787Z,13.60
2017-09-14T09:34:32.216Z,13.40
2017-09-14T09:36:59.656Z,13.30
2017-09-14T09:39:27.103Z,13.30
2017-09-14T09:41:54.557Z,13.20
2017-09-14T09:44:21.988Z,13.10
2017-09-14T09:46:49.472Z,13.10
2017-09-14T09:49:16.916Z,13.00
2017-09-14T09:51:44.365Z,12.90
2017-09-14T09:54:11.856Z,12.90
2017-09-14T09:56:39.302Z,13.00
2017-09-14T09:59:06.839Z,13.10
2017-09-14T10:01:34.260Z,13.20
2017-09-14T10:04:01.705Z,13.10
2017-09-14T10:06:29.141Z,12.90
2017-09-14T10:08:56.580Z,12.80
2017-09-14T10:11:24.060Z,12.70
2017-09-14T10:13:51.508Z,12.70
2017-09-14T10:16:18.953Z,12.60
2017-09-14T10:18:46.420Z,12.40
2017-09-14T10:21:14.620Z,12.20
2017-09-14T10:23:42.088Z,12.30
2017-09-14T10:26:09.544Z,12.20
2017-09-14T10:28:36.985Z,12.20
2017-09-14T10:31:04.428Z,12.20
2017-09-14T10:33:31.881Z,12.30
2017-09-14T10:35:59.320Z,12.30
2017-09-14T10:38:27.388Z,12.40
2017-09-14T10:40:54.918Z,12.40
2017-09-14T10:43:22.350Z,12.50
2017-09-14T10:45:49.784Z,12.50
2017-09-14T10:48:17.224Z,12.60
2017-09-14T10:50:44.684Z,12.70
2017-09-14T10:53:12.132Z,12.70
2017-09-14T10:55:39.576Z,12.80
2017-09-14T10:58:07.026Z,12.90
2017-09-14T11:00:34.469Z,12.90
2017-09-14T11:03:01.900Z,13.00
2017-09-14T11:05:29.453Z,13.10
2017-09-14T11:07:56.888Z,13.10
2017-09-14T11:10:24.329Z,13.10
2017-09-14T11:12:51.764Z,13.10
2017-09-14T11:15:19.226Z,13.00
2017-09-14T11:17:46.679Z,12.90
2017-09-14T11:20:14.124Z,12.90
2017-09-14T11:22:42.440Z,13.00
2017-09-14T11:25:09.912Z,13.00
2017-09-14T11:27:37.364Z,13.00
2017-09-14T11:30:04.824Z,12.90
2017-09-14T11:32:33.012Z,12.90
2017-09-14T11:35:00.452Z,12.80
2017-09-14T11:37:27.893Z,12.80
2017-09-14T11:39:55.324Z,12.80
2017-09-14T11:42:22.770Z,12.70
2017-09-14T11:44:50.213Z,12.50
2017-09-14T11:47:18.476Z,12.40
2017-09-14T11:49:45.908Z,12.30
2017-09-14T11:52:13.349Z,12.30
2017-09-14T11:54:40.796Z,12.20
2017-09-14T11:57:09.122Z,12.20
2017-09-14T11:59:36.566Z,12.20
2017-09-14T12:02:04.013Z,12.20
2017-09-14T12:04:31.447Z,12.20
2017-09-14T12:06:58.892Z,12.20
2017-09-14T12:09:26.449Z,12.20
2017-09-14T12:11:53.891Z,12.20
2017-09-14T12:14:21.425Z,12.20
2017-09-14T12:16:48.864Z,12.20
2017-09-14T12:19:16.295Z,12.30
2017-09-14T12:21:43.752Z,12.30
2017-09-14T12:24:11.302Z,12.30
2017-09-14T12:26:38.744Z,12.30
2017-09-14T12:29:06.940Z,12.30
2017-09-14T12:31:34.386Z,12.20
2017-09-14T12:34:01.889Z,12.20
2017-09-14T12:36:29.338Z,12.20
2017-09-14T12:38:56.873Z,12.10
2017-09-14T12:41:24.421Z,12.20
2017-09-14T12:43:51.964Z,12.20
2017-09-14T12:46:19.416Z,12.20
2017-09-14T12:48:47.697Z,12.10
2017-09-14T12:51:15.924Z,12.00
2017-09-14T12:53:43.359Z,11.90
2017-09-14T12:56:10.797Z,12.00
2017-09-14T12:58:38.245Z,11.90
2017-09-14T13:01:05.701Z,11.90
2017-09-14T13:03:33.150Z,11.80
2017-09-14T13:06:00.608Z,11.80
2017-09-14T13:08:28.044Z,11.80
2017-09-14T13:10:56.262Z,11.80
2017-09-14T13:13:23.703Z,11.80
2017-09-14T13:15:51.158Z,11.80
2017-09-14T13:18:18.583Z,11.70
2017-09-14T13:20:46.013Z,11.80
2017-09-14T13:23:13.519Z,11.80
2017-09-14T13:25:41.048Z,11.70
2017-09-14T13:28:08.484Z,11.70
2017-09-14T13:30:35.924Z,11.70
2017-09-14T13:33:03.392Z,11.80
2017-09-14T13:35:30.836Z,11.80
2017-09-14T13:37:58.269Z,11.70
2017-09-14T13:40:25.720Z,11.70
2017-09-14T13:42:53.925Z,11.70
2017-09-14T13:45:21.401Z,11.70
2017-09-14T13:47:48.988Z,11.70
2017-09-14T13:50:16.413Z,11.70
2017-09-14T13:52:43.844Z,11.60
2017-09-14T13:55:11.289Z,11.70
2017-09-14T13:57:38.732Z,11.70
2017-09-14T14:00:06.189Z,11.70
2017-09-14T14:02:33.720Z,11.70
2017-09-14T14:05:01.164Z,11.70
2017-09-14T14:07:28.596Z,11.70
2017-09-14T14:09:56.052Z,11.80
2017-09-14T14:12:23.511Z,11.70
2017-09-14T14:14:50.966Z,11.80
2017-09-14T14:17:19.167Z,11.80
2017-09-14T14:19:46.601Z,11.80
2017-09-14T14:22:14.037Z,11.70
2017-09-14T14:24:41.484Z,11.80
2017-09-14T14:27:09.041Z,11.80
2017-09-14T14:29:36.512Z,11.80
2017-09-14T14:32:03.945Z,11.80
2017-09-14T14:34:31.404Z,11.80
2017-09-14T14:36:58.840Z,11.90
2017-09-14T14:39:26.273Z,11.80
2017-09-14T14:41:53.725Z,11.70
2017-09-14T14:44:21.165Z,11.70
2017-09-14T14:46:48.608Z,11.80
2017-09-14T14:49:16.053Z,11.80
2017-09-14T14:51:43.599Z,11.90
2017-09-14T14:54:11.096Z,11.90
2017-09-14T14:56:38.583Z,11.90
2017-09-14T14:59:06.030Z,12.00
2017-09-14T15:01:33.569Z,12.00
2017-09-14T15:04:01.008Z,12.00
2017-09-14T15:06:28.452Z,12.00
2017-09-14T15:08:56.722Z,11.90
2017-09-14T15:11:25.661Z,11.90
2017-09-14T15:13:53.088Z,11.90
2017-09-14T15:16:20.533Z,11.90
2017-09-14T15:18:48.021Z,12.00
2017-09-14T15:21:15.472Z,12.00
2017-09-14T15:23:42.915Z,12.10
2017-09-14T15:26:10.360Z,12.20
2017-09-14T15:28:37.865Z,12.30
2017-09-14T15:31:05.300Z,12.30
2017-09-14T15:33:32.754Z,12.30
2017-09-14T15:36:00.189Z,12.30
2017-09-14T15:38:33.368Z,12.30
2017-09-14T15:41:06.560Z,12.20
2017-09-14T15:46:30.608Z,12.20
2017-09-14T15:49:03.816Z,12.20
2017-09-14T15:51:36.938Z,12.10
2017-09-14T15:54:04.380Z,12.20
2017-09-14T15:56:31.812Z,12.30
2017-09-14T15:59:00.027Z,12.50
2017-09-14T16:01:27.482Z,12.40
2017-09-14T16:03:55.040Z,12.50
2017-09-14T16:06:22.474Z,12.50
2017-09-14T16:08:49.913Z,12.50
2017-09-14T16:11:17.358Z,12.50
2017-09-14T16:13:44.808Z,12.50
2017-09-14T16:16:12.448Z,12.50
2017-09-14T16:18:39.896Z,12.50
2017-09-14T16:21:07.339Z,12.40
2017-09-14T16:23:34.874Z,12.40
2017-09-14T16:26:02.313Z,12.40
2017-09-14T16:28:29.768Z,12.40
2017-09-14T16:30:57.208Z,12.40
2017-09-14T16:33:24.644Z,12.40
2017-09-14T16:35:52.092Z,12.40
2017-09-14T16:38:19.537Z,12.30
2017-09-14T16:40:46.994Z,12.30
2017-09-14T16:43:15.197Z,12.20
2017-09-14T16:45:42.632Z,12.20
2017-09-14T16:48:10.082Z,12.20
2017-09-14T16:50:37.677Z,12.10
2017-09-14T16:53:05.121Z,12.10
2017-09-14T16:55:32.564Z,12.00
2017-09-14T16:58:00.764Z,12.00
2017-09-14T17:00:28.237Z,12.00
2017-09-14T17:02:55.642Z,12.00
2017-09-14T17:05:23.133Z,12.00
2017-09-14T17:07:50.577Z,12.00
2017-09-14T17:10:18.124Z,11.90
2017-09-14T17:12:45.676Z,12.00
2017-09-14T17:15:13.126Z,11.90
2017-09-14T17:17:42.056Z,11.80
2017-09-14T17:20:09.537Z,11.80
2017-09-14T17:22:37.004Z,11.80
2017-09-14T17:25:05.232Z,11.70
2017-09-14T17:27:32.693Z,11.70
2017-09-14T17:30:00.148Z,11.70
2017-09-14T17:32:28.348Z,11.60
2017-09-14T17:34:55.784Z,11.60
2017-09-14T17:37:23.264Z,11.60
2017-09-14T17:39:50.708Z,11.50
2017-09-14T17:42:18.152Z,11.50
2017-09-14T17:44:45.592Z,11.50
2017-09-14T17:47:13.038Z,11.60
2017-09-14T17:49:41.236Z,11.50
2017-09-14T17:52:08.680Z,11.50
2017-09-14T17:54:36.127Z,11.50
2017-09-14T17:57:03.569Z,11.50
2017-09-14T17:59:31.780Z,11.50
2017-09-14T18:01:59.311Z,11.50
2017-09-14T18:04:26.787Z,11.50
2017-09-14T18:06:54.333Z,11.50
2017-09-14T18:09:21.760Z,11.50
2017-09-14T18:11:49.196Z,11.50
2017-09-14T18:14:16.636Z,11.50
2017-09-14T18:16:44.084Z,11.50
2017-09-14T18:19:11.537Z,11.40
2017-09-14T18:21:38.980Z,11.40
2017-09-14T18:24:06.427Z,11.40
2017-09-14T18:26:33.962Z,11.40
2017-09-14T18:29:01.393Z,11.40
2017-09-14T18:31:28.914Z,11.40
2017-09-14T18:33:56.359Z,11.40
2017-09-14T18:36:23.791Z,11.30
2017-09-14T18:38:51.228Z,11.40
2017-09-14T18:41:18.662Z,11.40
2017-09-14T18:43:46.160Z,11.30
2017-09-14T18:46:13.592Z,11.30
2017-09-14T18:48:41.032Z,11.30
2017-09-14T18:51:09.294Z,11.20
2017-09-14T18:53:37.510Z,11.20
2017-09-14T18:56:04.957Z,11.20
2017-09-14T18:58:32.393Z,11.20
2017-09-14T19:00:59.838Z,11.30
2017-09-14T19:03:27.305Z,11.20
2017-09-14T19:05:54.760Z,11.30
2017-09-14T19:08:22.214Z,11.30
2017-09-14T19:10:50.425Z,11.30
2017-09-14T19:13:17.870Z,11.20
2017-09-14T19:15:45.304Z,11.30
2017-09-14T19:18:12.997Z,11.30
2017-09-14T19:20:40.421Z,11.20
2017-09-14T19:23:08.701Z,11.20
2017-09-14T19:25:36.133Z,11.20
2017-09-14T19:28:03.581Z,11.20
2017-09-14T19:30:31.037Z,11.20
2017-09-14T19:32:59.232Z,11.20
2017-09-14T19:35:26.675Z,11.20
2017-09-14T19:37:54.161Z,11.20
2017-09-14T19:40:21.717Z,11.10
2017-09-14T19:42:49.152Z,11.10
2017-09-14T19:45:16.597Z,11.10
2017-09-14T19:47:44.041Z,11.10
2017-09-14T19:50:11.545Z,11.10
2017-09-14T19:52:39.748Z,11.00
2017-09-14T19:55:07.181Z,11.00
2017-09-14T19:57:34.625Z,11.00
2017-09-14T20:00:02.120Z,11.00
2017-09-14T20:02:29.665Z,11.00
2017-09-14T20:04:57.112Z,11.00
2017-09-14T20:07:24.629Z,11.00
2017-09-14T20:09:52.089Z,11.00
2017-09-14T20:12:19.529Z,11.00
2017-09-14T20:14:46.973Z,10.90
2017-09-14T20:17:15.932Z,10.90
2017-09-14T20:19:43.384Z,10.90
2017-09-14T20:22:10.824Z,10.90
2017-09-14T20:24:38.260Z,10.90
2017-09-14T20:27:05.718Z,10.90
2017-09-14T20:29:33.160Z,10.90
2017-09-14T20:32:00.617Z,10.90
2017-09-14T20:34:28.157Z,10.90
2017-09-14T20:36:55.605Z,10.90
2017-09-14T20:39:23.041Z,10.90
2017-09-14T20:41:51.289Z,10.90
2017-09-14T20:44:18.734Z,10.90
2017-09-14T20:46:46.172Z,10.90
2017-09-14T20:49:13.617Z,10.90
2017-09-14T20:51:41.068Z,10.80
2017-09-14T20:54:08.628Z,10.80
2017-09-14T20:56:36.075Z,10.80
2017-09-14T20:59:04.295Z,10.90
2017-09-14T21:01:31.784Z,10.90
2017-09-14T21:04:00.148Z,10.90
2017-09-14T21:06:27.609Z,10.90
2017-09-14T21:08:59.019Z,10.90
2017-09-14T21:11:26.477Z,10.90
2017-09-14T21:13:54.688Z,11.00
2017-09-14T21:16:22.137Z,11.00
2017-09-14T21:18:49.633Z,11.00
2017-09-14T21:21:17.156Z,11.00
2017-09-14T21:23:45.356Z,11.10
2017-09-14T21:26:12.792Z,11.10
2017-09-14T21:28:40.328Z,11.10
2017-09-14T21:31:08.546Z,11.10
2017-09-14T21:33:36.000Z,11.10
2017-09-14T21:36:03.429Z,11.10
2017-09-14T21:38:31.422Z,11.00
2017-09-14T21:40:59.662Z,11.10
2017-09-14T21:43:27.189Z,11.00
2017-09-14T21:45:54.641Z,11.10
2017-09-14T21:48:22.085Z,11.10
2017-09-14T21:50:50.308Z,11.10
2017-09-14T21:53:17.798Z,11.10
2017-09-14T21:55:45.240Z,11.10
2017-09-14T21:58:12.693Z,11.10
2017-09-14T22:00:40.930Z,11.10
2017-09-14T22:03:08.376Z,11.10
2017-09-14T22:05:35.817Z,11.20
2017-09-14T22:08:03.256Z,11.10
2017-09-14T22:10:30.752Z,11.20
2017-09-14T22:12:58.249Z,11.20
2017-09-14T22:15:25.695Z,11.10
2017-09-14T22:17:53.236Z,11.10
2017-09-14T22:20:20.776Z,11.10
2017-09-14T22:22:48.208Z,11.10
2017-09-14T22:25:15.666Z,11.10
2017-09-14T22:27:43.106Z,11.10
2017-09-14T22:30:10.657Z,11.10
2017-09-14T22:32:38.097Z,11.10
2017-09-14T22:35:05.555Z,11.10
2017-09-14T22:37:33.081Z,11.10
2017-09-14T22:40:00.541Z,11.10
2017-09-14T22:42:28.785Z,11.10
2017-09-14T22:44:56.332Z,11.10
2017-09-14T22:47:23.773Z,11.10
2017-09-14T22:49:51.215Z,11.10
2017-09-14T22:52:18.645Z,11.10
2017-09-14T22:54:46.089Z,11.10
2017-09-14T22:57:13.521Z,11.10
2017-09-14T22:59:40.992Z,11.10
2017-09-14T23:02:08.433Z,11.20
2017-09-14T23:04:35.884Z,11.10
2017-09-14T23:07:03.336Z,11.10
2017-09-14T23:09:31.536Z,11.20
2017-09-14T23:11:59.016Z,11.20
2017-09-14T23:14:26.452Z,11.20
2017-09-14T23:16:53.892Z,11.20
2017-09-14T23:19:21.337Z,11.20
2017-09-14T23:21:48.780Z,11.30
2017-09-14T23:24:16.237Z,11.20
2017-09-14T23:26:54.365Z,11.30
2017-09-14T23:29:21.800Z,11.30
2017-09-14T23:31:49.251Z,11.30
2017-09-14T23:34:16.684Z,11.30
2017-09-14T23:36:44.912Z,11.30
2017-09-14T23:39:12.344Z,11.30
2017-09-14T23:41:39.804Z,11.30
2017-09-14T23:44:07.243Z,11.30
2017-09-14T23:46:34.676Z,11.30
2017-09-14T23:49:02.112Z,11.20
2017-09-14T23:51:29.552Z,11.20
2017-09-14T23:53:57.011Z,11.20
2017-09-14T23:56:24.452Z,11.10
2017-09-14T23:58:51.997Z,11.10
